Houston, Missouri
Current Conditions -  °F | °C
As of 11:58 PM on Saturday 22 Nov 2014 (Local Time) from KTBN Reporting Station
Scattered Clouds Scattered Clouds  
Wind Chill: 51°   Ceiling: Unl
Heat Index: 51°   Visibility: 10mi
Dew Point: 50°   Wind: 13mph
Humidity: 94%   Direction: 160°SSE
Pressure: 29.81"   Gusts: 18mph
Location:  37.33°N, 91.96°W
Report Text: KTBN 230558Z AUTO 16011G16KT 10SM FEW095 SCT220 11/10 A2981 RMK AO2 SLP096 60001 T01080099 10115 20108 401370066 57020
Loading
Personal Weather Stations






























Interactive Weather Map New forecast layout! Learn more

10-Day Weather Forecast

Advertisements
Track Severe Weather on mobile